Aeroporto :
LOGIN :

Iscrizione | Disclaimer

   EN    FR    IT 

 










Sommario :    VFR   VFR Marginale   IFR   IFR Intensivo   IFR Molto Intensivo
Visibilità : 
Base nubi : 
>= 8 km
>= 3000ft
5 / 8 km
1000 / 3000 ft
1500m / 5 km
500 / 1000 ft
800 / 1500m
200 / 500 ft
< 800m
< 200 ft
Simboli :   Temporali  Nebbia  Neve Forte  Precipitazioni Forti  Vento > 20 kt
SIGMETs :   Varie  Temporali  Ghiacco  Turbolenza  Onda orograficha  Ceneri Vulcaniche






- Altitudine del aeroporto : 16 ft
- Codice IATA : EAS


LESO - San Sebastian Fuenterrabia

ULTIMO METAR :
  • 192030Z AUTO 28003KT 250V320 9999 BKN017 OVC028 23/20 Q1017

METARs OBSOLETI :
  • 192000Z AUTO 27003KT 220V320 9999 SCT017 OVC026 24/20 Q1017
  • 191930Z 30005KT 230V010 9999 SCT015 BKN023 24/20 Q1017
  • 191900Z 30005KT 240V350 9999 SCT015 BKN023 24/21 Q1017
  • 191830Z 31004KT 230V030 9999 FEW014 BKN024 24/21 Q1017
  • 191800Z 34003KT 260V050 9999 FEW013 BKN023 25/21 Q1017
  • 191730Z 35005KT 290V050 9999 BKN023 24/20 Q1017
  • 191700Z 36006KT 320V050 9999 SCT023 25/20 Q1017
  • 191630Z 36005KT 320V040 9999 SCT023 25/19 Q1017
  • 191600Z 36005KT 300V040 9999 SCT023 25/20 Q1017

TAF TAF LESO
Valido dal 19 a 18 ore il 20 a 18 ore UTC


191700Z 1918/2018 30006KT 9999 SCT020 TX26/2015Z TN20/2002Z



MetMap, La meteo Aeronautica in un colpo d'occhio ! - Copyright ORBIFLY Dicembre 2007 - Disclaimer

ORBIFLY MET'MAP TEAM :

Programmazione e sviluppo : Alexandra Zaïnal
Concezione : Baudouin d'Aumeries
Supporto tecnico e logistico : Manuel Goepfert
Aiuto : Marc-Olivier Méhu
Aiuto per la traduzione : Arnaldo La Scala




FONTI E CREDITI :

   NOAA